sensor_id;sensor_type;location;lat;lon;timestamp;P1;durP1;ratioP1;P2;durP2;ratioP2
7375;SDS011;3728;42.266;24.944;2023-06-26T00:00:37;3.22;;;2.17;;
7375;SDS011;3728;42.266;24.944;2023-06-26T00:03:05;3.05;;;2.10;;
7375;SDS011;3728;42.266;24.944;2023-06-26T00:05:33;3.05;;;2.10;;
7375;SDS011;3728;42.266;24.944;2023-06-26T00:08:02;4.07;;;2.20;;
7375;SDS011;3728;42.266;24.944;2023-06-26T00:10:30;3.30;;;2.30;;
7375;SDS011;3728;42.266;24.944;2023-06-26T00:12:58;4.38;;;2.78;;
7375;SDS011;3728;42.266;24.944;2023-06-26T00:15:27;4.35;;;2.90;;
7375;SDS011;3728;42.266;24.944;2023-06-26T00:17:58;4.75;;;2.85;;
7375;SDS011;3728;42.266;24.944;2023-06-26T00:20:26;5.28;;;3.03;;
7375;SDS011;3728;42.266;24.944;2023-06-26T00:22:53;4.72;;;2.63;;
7375;SDS011;3728;42.266;24.944;2023-06-26T00:25:21;3.17;;;2.25;;
7375;SDS011;3728;42.266;24.944;2023-06-26T00:27:49;2.85;;;2.20;;
7375;SDS011;3728;42.266;24.944;2023-06-26T00:30:17;2.58;;;2.20;;
7375;SDS011;3728;42.266;24.944;2023-06-26T00:32:45;4.22;;;2.17;;
7375;SDS011;3728;42.266;24.944;2023-06-26T00:35:12;2.65;;;2.20;;
7375;SDS011;3728;42.266;24.944;2023-06-26T00:37:43;2.53;;;1.95;;
7375;SDS011;3728;42.266;24.944;2023-06-26T00:40:12;4.70;;;1.85;;
7375;SDS011;3728;42.266;24.944;2023-06-26T00:42:40;2.75;;;2.20;;
7375;SDS011;3728;42.266;24.944;2023-06-26T00:45:07;3.45;;;2.00;;
7375;SDS011;3728;42.266;24.944;2023-06-26T00:47:35;2.35;;;2.15;;
7375;SDS011;3728;42.266;24.944;2023-06-26T00:50:04;2.28;;;2.08;;
7375;SDS011;3728;42.266;24.944;2023-06-26T00:52:33;2.70;;;2.13;;
7375;SDS011;3728;42.266;24.944;2023-06-26T00:55:01;5.30;;;2.13;;
7375;SDS011;3728;42.266;24.944;2023-06-26T00:57:30;3.33;;;2.08;;
7375;SDS011;3728;42.266;24.944;2023-06-26T00:59:59;2.97;;;2.30;;
7375;SDS011;3728;42.266;24.944;2023-06-26T01:02:30;2.05;;;1.83;;
7375;SDS011;3728;42.266;24.944;2023-06-26T01:05:01;2.60;;;2.38;;
7375;SDS011;3728;42.266;24.944;2023-06-26T01:07:34;4.13;;;2.10;;
7375;SDS011;3728;42.266;24.944;2023-06-26T01:10:07;2.20;;;2.00;;
7375;SDS011;3728;42.266;24.944;2023-06-26T01:12:36;6.90;;;2.30;;
7375;SDS011;3728;42.266;24.944;2023-06-26T01:15:05;2.70;;;2.10;;
7375;SDS011;3728;42.266;24.944;2023-06-26T01:17:34;3.15;;;2.15;;
7375;SDS011;3728;42.266;24.944;2023-06-26T01:20:05;2.60;;;2.40;;
7375;SDS011;3728;42.266;24.944;2023-06-26T01:28:05;2.08;;;1.95;;
7375;SDS011;3728;42.266;24.944;2023-06-26T01:30:35;2.65;;;2.17;;
7375;SDS011;3728;42.266;24.944;2023-06-26T01:33:08;2.33;;;2.03;;
7375;SDS011;3728;42.266;24.944;2023-06-26T01:35:37;2.45;;;2.10;;
7375;SDS011;3728;42.266;24.944;2023-06-26T01:38:18;3.13;;;2.08;;
7375;SDS011;3728;42.266;24.944;2023-06-26T01:40:50;5.57;;;2.20;;
7375;SDS011;3728;42.266;24.944;2023-06-26T01:46:42;3.58;;;2.60;;
7375;SDS011;3728;42.266;24.944;2023-06-26T01:49:37;3.25;;;2.70;;
7375;SDS011;3728;42.266;24.944;2023-06-26T01:52:24;4.57;;;2.80;;
7375;SDS011;3728;42.266;24.944;2023-06-26T01:55:20;3.22;;;2.40;;
7375;SDS011;3728;42.266;24.944;2023-06-26T01:58:09;5.05;;;2.65;;
7375;SDS011;3728;42.266;24.944;2023-06-26T02:00:37;5.18;;;2.88;;
7375;SDS011;3728;42.266;24.944;2023-06-26T02:03:11;5.53;;;2.55;;
7375;SDS011;3728;42.266;24.944;2023-06-26T02:05:39;3.38;;;2.50;;
7375;SDS011;3728;42.266;24.944;2023-06-26T02:08:08;6.90;;;2.35;;
7375;SDS011;3728;42.266;24.944;2023-06-26T02:10:37;3.80;;;2.90;;
7375;SDS011;3728;42.266;24.944;2023-06-26T02:13:07;4.70;;;2.85;;
7375;SDS011;3728;42.266;24.944;2023-06-26T02:15:35;3.63;;;2.50;;
7375;SDS011;3728;42.266;24.944;2023-06-26T02:18:03;5.05;;;2.70;;
7375;SDS011;3728;42.266;24.944;2023-06-26T02:20:30;5.97;;;2.95;;
7375;SDS011;3728;42.266;24.944;2023-06-26T02:23:02;5.03;;;2.70;;
7375;SDS011;3728;42.266;24.944;2023-06-26T02:25:30;4.47;;;2.92;;
7375;SDS011;3728;42.266;24.944;2023-06-26T02:27:58;4.28;;;3.08;;
7375;SDS011;3728;42.266;24.944;2023-06-26T02:30:25;2.85;;;2.60;;
7375;SDS011;3728;42.266;24.944;2023-06-26T02:32:56;4.90;;;2.72;;
7375;SDS011;3728;42.266;24.944;2023-06-26T02:35:24;3.28;;;2.83;;
7375;SDS011;3728;42.266;24.944;2023-06-26T02:37:51;5.45;;;3.35;;
7375;SDS011;3728;42.266;24.944;2023-06-26T02:40:19;5.90;;;3.33;;
7375;SDS011;3728;42.266;24.944;2023-06-26T02:42:47;6.55;;;3.30;;
7375;SDS011;3728;42.266;24.944;2023-06-26T02:45:16;8.15;;;3.63;;
7375;SDS011;3728;42.266;24.944;2023-06-26T02:47:44;7.63;;;3.35;;
7375;SDS011;3728;42.266;24.944;2023-06-26T02:50:11;4.97;;;3.47;;
7375;SDS011;3728;42.266;24.944;2023-06-26T02:53:00;4.55;;;3.20;;
7375;SDS011;3728;42.266;24.944;2023-06-26T02:55:28;6.82;;;3.75;;
7375;SDS011;3728;42.266;24.944;2023-06-26T02:57:56;18.63;;;9.52;;
7375;SDS011;3728;42.266;24.944;2023-06-26T03:00:23;9.65;;;5.32;;
7375;SDS011;3728;42.266;24.944;2023-06-26T03:02:53;16.92;;;12.85;;
7375;SDS011;3728;42.266;24.944;2023-06-26T03:05:22;28.73;;;22.25;;
7375;SDS011;3728;42.266;24.944;2023-06-26T03:07:51;17.02;;;10.68;;
7375;SDS011;3728;42.266;24.944;2023-06-26T03:10:18;11.48;;;7.70;;
7375;SDS011;3728;42.266;24.944;2023-06-26T03:12:46;14.70;;;7.32;;
7375;SDS011;3728;42.266;24.944;2023-06-26T03:15:16;13.73;;;7.93;;
7375;SDS011;3728;42.266;24.944;2023-06-26T03:17:45;12.95;;;8.02;;
7375;SDS011;3728;42.266;24.944;2023-06-26T03:20:20;16.77;;;8.13;;
7375;SDS011;3728;42.266;24.944;2023-06-26T03:22:52;12.93;;;8.23;;
7375;SDS011;3728;42.266;24.944;2023-06-26T03:25:21;13.57;;;7.82;;
7375;SDS011;3728;42.266;24.944;2023-06-26T03:27:56;17.25;;;7.60;;
7375;SDS011;3728;42.266;24.944;2023-06-26T03:30:25;11.32;;;8.27;;
7375;SDS011;3728;42.266;24.944;2023-06-26T03:32:58;14.10;;;8.57;;
7375;SDS011;3728;42.266;24.944;2023-06-26T03:35:26;12.07;;;10.13;;
7375;SDS011;3728;42.266;24.944;2023-06-26T03:37:54;14.57;;;9.40;;
7375;SDS011;3728;42.266;24.944;2023-06-26T03:40:22;12.00;;;8.98;;
7375;SDS011;3728;42.266;24.944;2023-06-26T03:42:50;16.45;;;8.68;;
7375;SDS011;3728;42.266;24.944;2023-06-26T03:45:20;14.90;;;8.88;;
7375;SDS011;3728;42.266;24.944;2023-06-26T03:47:48;16.75;;;8.73;;
7375;SDS011;3728;42.266;24.944;2023-06-26T03:50:18;11.18;;;7.32;;
7375;SDS011;3728;42.266;24.944;2023-06-26T03:52:46;13.40;;;7.60;;
7375;SDS011;3728;42.266;24.944;2023-06-26T03:55:14;9.95;;;8.02;;
7375;SDS011;3728;42.266;24.944;2023-06-26T03:57:45;14.05;;;7.55;;
7375;SDS011;3728;42.266;24.944;2023-06-26T04:00:13;12.30;;;7.43;;
7375;SDS011;3728;42.266;24.944;2023-06-26T04:02:41;9.40;;;7.13;;
7375;SDS011;3728;42.266;24.944;2023-06-26T04:05:10;14.68;;;6.68;;
7375;SDS011;3728;42.266;24.944;2023-06-26T04:07:38;15.80;;;7.35;;
7375;SDS011;3728;42.266;24.944;2023-06-26T04:10:06;12.13;;;6.63;;
7375;SDS011;3728;42.266;24.944;2023-06-26T04:12:34;16.63;;;8.55;;
7375;SDS011;3728;42.266;24.944;2023-06-26T04:15:02;16.42;;;8.38;;
7375;SDS011;3728;42.266;24.944;2023-06-26T04:17:30;22.40;;;8.95;;
7375;SDS011;3728;42.266;24.944;2023-06-26T04:19:57;40.88;;;16.85;;
7375;SDS011;3728;42.266;24.944;2023-06-26T04:22:25;30.35;;;17.80;;
7375;SDS011;3728;42.266;24.944;2023-06-26T04:24:53;21.92;;;13.32;;
7375;SDS011;3728;42.266;24.944;2023-06-26T04:27:21;16.50;;;11.77;;
7375;SDS011;3728;42.266;24.944;2023-06-26T04:29:49;18.67;;;10.55;;
7375;SDS011;3728;42.266;24.944;2023-06-26T04:32:16;15.38;;;8.88;;
7375;SDS011;3728;42.266;24.944;2023-06-26T04:34:44;17.45;;;9.73;;
7375;SDS011;3728;42.266;24.944;2023-06-26T04:37:11;14.90;;;11.02;;
7375;SDS011;3728;42.266;24.944;2023-06-26T04:39:43;14.75;;;9.70;;
7375;SDS011;3728;42.266;24.944;2023-06-26T04:42:10;14.45;;;9.93;;
7375;SDS011;3728;42.266;24.944;2023-06-26T04:44:39;14.43;;;10.30;;
7375;SDS011;3728;42.266;24.944;2023-06-26T04:47:08;19.85;;;10.50;;
7375;SDS011;3728;42.266;24.944;2023-06-26T04:49:36;17.13;;;10.50;;
7375;SDS011;3728;42.266;24.944;2023-06-26T04:52:05;16.13;;;9.20;;
7375;SDS011;3728;42.266;24.944;2023-06-26T04:54:32;18.15;;;10.40;;
7375;SDS011;3728;42.266;24.944;2023-06-26T04:57:00;14.93;;;9.23;;
7375;SDS011;3728;42.266;24.944;2023-06-26T04:59:27;12.80;;;8.73;;
7375;SDS011;3728;42.266;24.944;2023-06-26T05:01:55;13.80;;;9.02;;
7375;SDS011;3728;42.266;24.944;2023-06-26T05:04:22;12.73;;;8.30;;
7375;SDS011;3728;42.266;24.944;2023-06-26T05:06:50;10.82;;;7.72;;
7375;SDS011;3728;42.266;24.944;2023-06-26T05:09:18;8.27;;;7.40;;
7375;SDS011;3728;42.266;24.944;2023-06-26T05:11:45;11.18;;;6.80;;
7375;SDS011;3728;42.266;24.944;2023-06-26T05:14:13;10.55;;;7.20;;
7375;SDS011;3728;42.266;24.944;2023-06-26T05:16:44;16.98;;;7.80;;
7375;SDS011;3728;42.266;24.944;2023-06-26T05:19:12;10.57;;;6.88;;
7375;SDS011;3728;42.266;24.944;2023-06-26T05:21:39;13.57;;;7.72;;
7375;SDS011;3728;42.266;24.944;2023-06-26T05:24:08;13.55;;;7.95;;
7375;SDS011;3728;42.266;24.944;2023-06-26T05:26:36;15.15;;;8.27;;
7375;SDS011;3728;42.266;24.944;2023-06-26T05:29:04;10.13;;;8.23;;
7375;SDS011;3728;42.266;24.944;2023-06-26T05:31:32;16.50;;;8.23;;
7375;SDS011;3728;42.266;24.944;2023-06-26T05:34:04;10.55;;;7.57;;
7375;SDS011;3728;42.266;24.944;2023-06-26T05:36:32;9.77;;;7.50;;
7375;SDS011;3728;42.266;24.944;2023-06-26T05:39:01;11.23;;;6.80;;
7375;SDS011;3728;42.266;24.944;2023-06-26T05:41:29;12.13;;;6.65;;
7375;SDS011;3728;42.266;24.944;2023-06-26T05:43:57;9.68;;;7.18;;
7375;SDS011;3728;42.266;24.944;2023-06-26T05:46:25;11.48;;;6.35;;
7375;SDS011;3728;42.266;24.944;2023-06-26T05:48:52;9.93;;;6.25;;
7375;SDS011;3728;42.266;24.944;2023-06-26T05:51:20;6.13;;;5.18;;
7375;SDS011;3728;42.266;24.944;2023-06-26T05:53:48;5.78;;;5.28;;
7375;SDS011;3728;42.266;24.944;2023-06-26T05:56:17;8.48;;;5.50;;
7375;SDS011;3728;42.266;24.944;2023-06-26T05:58:45;8.48;;;5.35;;
7375;SDS011;3728;42.266;24.944;2023-06-26T06:01:13;8.45;;;4.50;;
7375;SDS011;3728;42.266;24.944;2023-06-26T06:03:41;5.55;;;4.70;;
7375;SDS011;3728;42.266;24.944;2023-06-26T06:06:09;8.32;;;4.90;;
7375;SDS011;3728;42.266;24.944;2023-06-26T06:08:37;11.30;;;4.82;;
7375;SDS011;3728;42.266;24.944;2023-06-26T06:11:08;4.63;;;4.18;;
7375;SDS011;3728;42.266;24.944;2023-06-26T06:13:36;4.45;;;3.72;;
7375;SDS011;3728;42.266;24.944;2023-06-26T06:16:03;8.02;;;5.10;;
7375;SDS011;3728;42.266;24.944;2023-06-26T06:18:31;4.97;;;4.47;;
7375;SDS011;3728;42.266;24.944;2023-06-26T06:20:59;4.13;;;3.72;;
7375;SDS011;3728;42.266;24.944;2023-06-26T06:23:27;7.85;;;4.00;;
7375;SDS011;3728;42.266;24.944;2023-06-26T06:25:55;4.20;;;3.67;;
7375;SDS011;3728;42.266;24.944;2023-06-26T06:28:23;5.70;;;3.85;;
7375;SDS011;3728;42.266;24.944;2023-06-26T06:30:50;7.53;;;3.70;;
7375;SDS011;3728;42.266;24.944;2023-06-26T06:33:18;8.50;;;3.88;;
7375;SDS011;3728;42.266;24.944;2023-06-26T06:35:45;6.60;;;3.53;;
7375;SDS011;3728;42.266;24.944;2023-06-26T06:38:13;6.95;;;3.45;;
7375;SDS011;3728;42.266;24.944;2023-06-26T06:40:41;4.25;;;2.55;;
7375;SDS011;3728;42.266;24.944;2023-06-26T06:43:08;4.25;;;3.15;;
7375;SDS011;3728;42.266;24.944;2023-06-26T06:45:36;5.50;;;3.33;;
7375;SDS011;3728;42.266;24.944;2023-06-26T06:48:04;7.53;;;3.28;;
7375;SDS011;3728;42.266;24.944;2023-06-26T06:50:32;10.27;;;3.97;;
7375;SDS011;3728;42.266;24.944;2023-06-26T06:53:00;6.18;;;3.13;;
7375;SDS011;3728;42.266;24.944;2023-06-26T06:55:28;7.40;;;3.38;;
7375;SDS011;3728;42.266;24.944;2023-06-26T06:57:55;4.25;;;3.17;;
7375;SDS011;3728;42.266;24.944;2023-06-26T07:00:24;3.92;;;3.17;;
7375;SDS011;3728;42.266;24.944;2023-06-26T07:02:53;4.25;;;3.20;;
7375;SDS011;3728;42.266;24.944;2023-06-26T07:05:23;4.60;;;3.58;;
7375;SDS011;3728;42.266;24.944;2023-06-26T07:07:51;5.13;;;3.70;;
7375;SDS011;3728;42.266;24.944;2023-06-26T07:10:18;3.75;;;3.30;;
7375;SDS011;3728;42.266;24.944;2023-06-26T07:12:46;4.22;;;3.50;;
7375;SDS011;3728;42.266;24.944;2023-06-26T07:15:14;4.95;;;3.28;;
7375;SDS011;3728;42.266;24.944;2023-06-26T07:17:41;3.58;;;3.28;;
7375;SDS011;3728;42.266;24.944;2023-06-26T07:20:09;12.23;;;3.50;;
7375;SDS011;3728;42.266;24.944;2023-06-26T07:22:42;7.88;;;4.28;;
7375;SDS011;3728;42.266;24.944;2023-06-26T07:25:11;11.10;;;4.28;;
7375;SDS011;3728;42.266;24.944;2023-06-26T07:27:40;13.93;;;4.18;;
7375;SDS011;3728;42.266;24.944;2023-06-26T07:30:09;7.78;;;4.35;;
7375;SDS011;3728;42.266;24.944;2023-06-26T07:32:37;6.40;;;3.92;;
7375;SDS011;3728;42.266;24.944;2023-06-26T07:35:07;8.02;;;6.72;;
7375;SDS011;3728;42.266;24.944;2023-06-26T07:37:35;4.75;;;3.85;;
7375;SDS011;3728;42.266;24.944;2023-06-26T07:40:02;15.95;;;4.70;;
7375;SDS011;3728;42.266;24.944;2023-06-26T07:42:31;6.40;;;3.45;;
7375;SDS011;3728;42.266;24.944;2023-06-26T07:44:58;6.28;;;3.08;;
7375;SDS011;3728;42.266;24.944;2023-06-26T07:47:26;3.72;;;3.15;;
7375;SDS011;3728;42.266;24.944;2023-06-26T07:49:54;6.32;;;2.90;;
7375;SDS011;3728;42.266;24.944;2023-06-26T07:52:21;3.58;;;3.28;;
7375;SDS011;3728;42.266;24.944;2023-06-26T07:54:49;9.05;;;3.38;;
7375;SDS011;3728;42.266;24.944;2023-06-26T07:57:17;4.00;;;3.40;;
7375;SDS011;3728;42.266;24.944;2023-06-26T07:59:44;5.40;;;3.58;;
7375;SDS011;3728;42.266;24.944;2023-06-26T08:02:12;4.50;;;3.08;;
7375;SDS011;3728;42.266;24.944;2023-06-26T08:04:40;5.28;;;3.15;;
7375;SDS011;3728;42.266;24.944;2023-06-26T08:07:07;4.97;;;2.92;;
7375;SDS011;3728;42.266;24.944;2023-06-26T08:09:35;4.38;;;2.78;;
7375;SDS011;3728;42.266;24.944;2023-06-26T08:12:03;3.58;;;2.88;;
7375;SDS011;3728;42.266;24.944;2023-06-26T08:14:33;6.68;;;3.33;;
7375;SDS011;3728;42.266;24.944;2023-06-26T08:17:00;3.70;;;3.03;;
7375;SDS011;3728;42.266;24.944;2023-06-26T08:19:28;3.38;;;2.80;;
7375;SDS011;3728;42.266;24.944;2023-06-26T08:21:56;4.68;;;2.88;;
7375;SDS011;3728;42.266;24.944;2023-06-26T08:24:23;5.40;;;2.90;;
7375;SDS011;3728;42.266;24.944;2023-06-26T08:26:51;3.47;;;2.60;;
7375;SDS011;3728;42.266;24.944;2023-06-26T08:29:18;3.03;;;2.53;;
7375;SDS011;3728;42.266;24.944;2023-06-26T08:31:46;5.00;;;2.88;;
7375;SDS011;3728;42.266;24.944;2023-06-26T08:34:13;3.38;;;2.85;;
7375;SDS011;3728;42.266;24.944;2023-06-26T08:36:41;4.18;;;2.90;;
7375;SDS011;3728;42.266;24.944;2023-06-26T08:39:09;4.15;;;3.20;;
7375;SDS011;3728;42.266;24.944;2023-06-26T08:41:37;4.53;;;2.88;;
7375;SDS011;3728;42.266;24.944;2023-06-26T08:44:04;2.97;;;2.72;;
7375;SDS011;3728;42.266;24.944;2023-06-26T08:46:32;5.63;;;3.10;;
7375;SDS011;3728;42.266;24.944;2023-06-26T08:49:04;2.78;;;2.53;;
7375;SDS011;3728;42.266;24.944;2023-06-26T08:51:57;3.55;;;2.80;;
7375;SDS011;3728;42.266;24.944;2023-06-26T08:54:56;6.25;;;2.95;;
7375;SDS011;3728;42.266;24.944;2023-06-26T08:57:26;4.88;;;2.42;;
7375;SDS011;3728;42.266;24.944;2023-06-26T08:59:55;2.95;;;2.65;;
7375;SDS011;3728;42.266;24.944;2023-06-26T09:02:23;4.32;;;2.80;;
7375;SDS011;3728;42.266;24.944;2023-06-26T09:04:51;5.38;;;2.50;;
7375;SDS011;3728;42.266;24.944;2023-06-26T09:07:18;2.80;;;2.60;;
7375;SDS011;3728;42.266;24.944;2023-06-26T09:09:46;3.38;;;3.08;;
7375;SDS011;3728;42.266;24.944;2023-06-26T09:12:14;5.07;;;3.03;;
7375;SDS011;3728;42.266;24.944;2023-06-26T09:14:42;6.80;;;4.70;;
7375;SDS011;3728;42.266;24.944;2023-06-26T09:17:10;7.38;;;2.92;;
7375;SDS011;3728;42.266;24.944;2023-06-26T09:19:39;7.20;;;3.10;;
7375;SDS011;3728;42.266;24.944;2023-06-26T09:22:10;7.30;;;2.80;;
7375;SDS011;3728;42.266;24.944;2023-06-26T09:24:41;2.95;;;2.50;;
7375;SDS011;3728;42.266;24.944;2023-06-26T09:27:10;3.00;;;2.58;;
7375;SDS011;3728;42.266;24.944;2023-06-26T09:29:38;7.43;;;2.88;;
7375;SDS011;3728;42.266;24.944;2023-06-26T09:32:07;3.53;;;2.90;;
7375;SDS011;3728;42.266;24.944;2023-06-26T09:34:36;6.00;;;2.67;;
7375;SDS011;3728;42.266;24.944;2023-06-26T09:37:03;2.72;;;2.42;;
7375;SDS011;3728;42.266;24.944;2023-06-26T09:39:31;5.38;;;3.05;;
7375;SDS011;3728;42.266;24.944;2023-06-26T09:41:59;6.38;;;2.95;;
7375;SDS011;3728;42.266;24.944;2023-06-26T09:44:32;4.95;;;3.20;;
7375;SDS011;3728;42.266;24.944;2023-06-26T09:47:03;4.85;;;2.72;;
7375;SDS011;3728;42.266;24.944;2023-06-26T09:49:31;5.57;;;3.15;;
7375;SDS011;3728;42.266;24.944;2023-06-26T09:51:59;4.00;;;2.85;;
7375;SDS011;3728;42.266;24.944;2023-06-26T09:54:30;5.38;;;3.00;;
7375;SDS011;3728;42.266;24.944;2023-06-26T09:57:09;9.45;;;2.88;;
7375;SDS011;3728;42.266;24.944;2023-06-26T09:59:40;2.95;;;2.65;;
7375;SDS011;3728;42.266;24.944;2023-06-26T10:02:09;3.80;;;2.35;;
7375;SDS011;3728;42.266;24.944;2023-06-26T10:04:38;4.20;;;2.42;;
7375;SDS011;3728;42.266;24.944;2023-06-26T10:07:10;4.55;;;2.55;;
7375;SDS011;3728;42.266;24.944;2023-06-26T10:19:01;4.35;;;2.97;;
7375;SDS011;3728;42.266;24.944;2023-06-26T10:21:34;26.05;;;3.50;;
7375;SDS011;3728;42.266;24.944;2023-06-26T10:24:02;6.55;;;3.22;;
7375;SDS011;3728;42.266;24.944;2023-06-26T10:26:35;7.82;;;3.70;;
7375;SDS011;3728;42.266;24.944;2023-06-26T10:29:10;7.68;;;3.28;;
7375;SDS011;3728;42.266;24.944;2023-06-26T10:31:40;11.68;;;4.03;;
7375;SDS011;3728;42.266;24.944;2023-06-26T10:34:20;6.07;;;3.63;;
7375;SDS011;3728;42.266;24.944;2023-06-26T10:36:55;4.70;;;2.90;;
7375;SDS011;3728;42.266;24.944;2023-06-26T10:42:36;16.77;;;4.20;;
7375;SDS011;3728;42.266;24.944;2023-06-26T10:45:15;4.82;;;3.10;;
7375;SDS011;3728;42.266;24.944;2023-06-26T10:47:48;3.20;;;2.90;;
7375;SDS011;3728;42.266;24.944;2023-06-26T10:50:23;34.38;;;6.43;;
7375;SDS011;3728;42.266;24.944;2023-06-26T10:55:37;11.38;;;3.70;;
7375;SDS011;3728;42.266;24.944;2023-06-26T11:06:25;6.03;;;4.55;;
7375;SDS011;3728;42.266;24.944;2023-06-26T11:14:22;13.02;;;6.07;;
7375;SDS011;3728;42.266;24.944;2023-06-26T11:16:57;13.02;;;5.13;;
7375;SDS011;3728;42.266;24.944;2023-06-26T11:19:36;11.38;;;5.38;;
7375;SDS011;3728;42.266;24.944;2023-06-26T11:22:13;14.13;;;6.35;;
7375;SDS011;3728;42.266;24.944;2023-06-26T11:25:09;11.10;;;5.60;;
7375;SDS011;3728;42.266;24.944;2023-06-26T11:30:10;9.77;;;4.80;;
7375;SDS011;3728;42.266;24.944;2023-06-26T11:32:51;9.70;;;4.72;;
7375;SDS011;3728;42.266;24.944;2023-06-26T11:35:25;7.93;;;4.40;;
7375;SDS011;3728;42.266;24.944;2023-06-26T11:37:57;7.22;;;4.65;;
7375;SDS011;3728;42.266;24.944;2023-06-26T11:40:34;6.13;;;4.35;;
7375;SDS011;3728;42.266;24.944;2023-06-26T11:43:06;5.65;;;4.57;;
7375;SDS011;3728;42.266;24.944;2023-06-26T11:45:34;7.13;;;4.65;;
7375;SDS011;3728;42.266;24.944;2023-06-26T11:48:02;6.55;;;4.70;;
7375;SDS011;3728;42.266;24.944;2023-06-26T11:50:30;4.90;;;4.50;;
7375;SDS011;3728;42.266;24.944;2023-06-26T11:53:00;5.45;;;4.43;;
7375;SDS011;3728;42.266;24.944;2023-06-26T11:55:39;6.53;;;4.45;;
7375;SDS011;3728;42.266;24.944;2023-06-26T11:58:11;4.32;;;3.38;;
7375;SDS011;3728;42.266;24.944;2023-06-26T12:00:42;4.35;;;3.00;;
7375;SDS011;3728;42.266;24.944;2023-06-26T12:03:14;8.77;;;3.67;;
7375;SDS011;3728;42.266;24.944;2023-06-26T12:05:42;6.50;;;3.47;;
7375;SDS011;3728;42.266;24.944;2023-06-26T12:08:11;8.20;;;3.45;;
7375;SDS011;3728;42.266;24.944;2023-06-26T12:11:21;4.85;;;3.05;;
7375;SDS011;3728;42.266;24.944;2023-06-26T12:13:53;7.55;;;2.90;;
7375;SDS011;3728;42.266;24.944;2023-06-26T12:16:21;3.95;;;3.20;;
7375;SDS011;3728;42.266;24.944;2023-06-26T12:18:49;5.45;;;3.40;;
7375;SDS011;3728;42.266;24.944;2023-06-26T12:24:04;8.00;;;3.95;;
7375;SDS011;3728;42.266;24.944;2023-06-26T12:26:37;3.15;;;2.90;;
7375;SDS011;3728;42.266;24.944;2023-06-26T12:29:06;4.25;;;3.35;;
7375;SDS011;3728;42.266;24.944;2023-06-26T12:31:36;5.30;;;3.00;;
7375;SDS011;3728;42.266;24.944;2023-06-26T13:29:50;3.97;;;3.40;;
7375;SDS011;3728;42.266;24.944;2023-06-26T13:32:20;3.80;;;3.50;;
7375;SDS011;3728;42.266;24.944;2023-06-26T13:34:48;5.93;;;3.73;;
7375;SDS011;3728;42.266;24.944;2023-06-26T13:37:15;4.77;;;3.93;;
7375;SDS011;3728;42.266;24.944;2023-06-26T13:39:43;5.07;;;3.30;;
7375;SDS011;3728;42.266;24.944;2023-06-26T13:42:17;5.15;;;3.45;;
7375;SDS011;3728;42.266;24.944;2023-06-26T13:44:46;5.20;;;3.22;;
7375;SDS011;3728;42.266;24.944;2023-06-26T13:47:29;6.47;;;2.90;;
7375;SDS011;3728;42.266;24.944;2023-06-26T13:49:58;3.90;;;3.05;;
7375;SDS011;3728;42.266;24.944;2023-06-26T13:52:26;5.22;;;3.70;;
7375;SDS011;3728;42.266;24.944;2023-06-26T13:54:54;3.97;;;3.15;;
7375;SDS011;3728;42.266;24.944;2023-06-26T13:57:24;4.43;;;3.30;;
7375;SDS011;3728;42.266;24.944;2023-06-26T13:59:58;4.40;;;3.03;;
7375;SDS011;3728;42.266;24.944;2023-06-26T14:02:26;3.33;;;2.80;;
7375;SDS011;3728;42.266;24.944;2023-06-26T14:04:56;3.33;;;2.80;;
7375;SDS011;3728;42.266;24.944;2023-06-26T14:07:25;4.93;;;3.35;;
7375;SDS011;3728;42.266;24.944;2023-06-26T14:09:55;4.18;;;2.88;;
7375;SDS011;3728;42.266;24.944;2023-06-26T14:12:25;3.60;;;3.05;;
7375;SDS011;3728;42.266;24.944;2023-06-26T14:14:53;3.83;;;3.00;;
7375;SDS011;3728;42.266;24.944;2023-06-26T14:17:21;4.40;;;2.80;;
7375;SDS011;3728;42.266;24.944;2023-06-26T14:19:51;7.35;;;3.38;;
7375;SDS011;3728;42.266;24.944;2023-06-26T14:22:19;5.65;;;2.90;;
7375;SDS011;3728;42.266;24.944;2023-06-26T14:24:48;4.78;;;2.65;;
7375;SDS011;3728;42.266;24.944;2023-06-26T14:27:16;3.70;;;2.88;;
7375;SDS011;3728;42.266;24.944;2023-06-26T14:29:47;3.95;;;2.28;;
7375;SDS011;3728;42.266;24.944;2023-06-26T14:32:15;3.13;;;2.55;;
7375;SDS011;3728;42.266;24.944;2023-06-26T14:34:45;3.83;;;2.85;;
7375;SDS011;3728;42.266;24.944;2023-06-26T14:37:13;6.57;;;2.95;;
7375;SDS011;3728;42.266;24.944;2023-06-26T14:39:41;7.93;;;2.42;;
7375;SDS011;3728;42.266;24.944;2023-06-26T14:42:09;2.88;;;2.42;;
7375;SDS011;3728;42.266;24.944;2023-06-26T14:44:42;4.90;;;2.95;;
7375;SDS011;3728;42.266;24.944;2023-06-26T14:47:15;7.20;;;3.33;;
7375;SDS011;3728;42.266;24.944;2023-06-26T14:49:46;5.18;;;2.83;;
7375;SDS011;3728;42.266;24.944;2023-06-26T14:52:14;5.45;;;2.65;;
7375;SDS011;3728;42.266;24.944;2023-06-26T14:54:42;5.47;;;2.65;;
7375;SDS011;3728;42.266;24.944;2023-06-26T14:57:12;3.75;;;2.67;;
7375;SDS011;3728;42.266;24.944;2023-06-26T14:59:40;4.60;;;2.90;;
7375;SDS011;3728;42.266;24.944;2023-06-26T15:02:09;6.85;;;2.72;;
7375;SDS011;3728;42.266;24.944;2023-06-26T15:04:37;4.10;;;3.00;;
7375;SDS011;3728;42.266;24.944;2023-06-26T15:07:05;5.25;;;3.90;;
7375;SDS011;3728;42.266;24.944;2023-06-26T15:09:33;8.20;;;6.43;;
7375;SDS011;3728;42.266;24.944;2023-06-26T15:12:01;5.93;;;3.42;;
7375;SDS011;3728;42.266;24.944;2023-06-26T15:14:31;3.70;;;3.05;;
7375;SDS011;3728;42.266;24.944;2023-06-26T15:16:58;6.82;;;3.67;;
7375;SDS011;3728;42.266;24.944;2023-06-26T15:19:27;4.35;;;2.85;;
7375;SDS011;3728;42.266;24.944;2023-06-26T15:21:56;7.25;;;3.75;;
7375;SDS011;3728;42.266;24.944;2023-06-26T15:24:24;4.88;;;3.33;;
7375;SDS011;3728;42.266;24.944;2023-06-26T15:26:53;4.68;;;3.33;;
7375;SDS011;3728;42.266;24.944;2023-06-26T15:29:21;5.93;;;3.33;;
7375;SDS011;3728;42.266;24.944;2023-06-26T15:31:49;5.13;;;3.17;;
7375;SDS011;3728;42.266;24.944;2023-06-26T15:34:17;5.75;;;3.65;;
7375;SDS011;3728;42.266;24.944;2023-06-26T15:36:54;7.57;;;4.70;;
7375;SDS011;3728;42.266;24.944;2023-06-26T15:39:22;5.80;;;4.55;;
7375;SDS011;3728;42.266;24.944;2023-06-26T15:41:54;7.43;;;3.60;;
7375;SDS011;3728;42.266;24.944;2023-06-26T15:44:23;9.73;;;3.65;;
7375;SDS011;3728;42.266;24.944;2023-06-26T15:46:52;4.28;;;3.47;;
7375;SDS011;3728;42.266;24.944;2023-06-26T15:49:25;4.18;;;3.50;;
7375;SDS011;3728;42.266;24.944;2023-06-26T15:51:54;4.28;;;3.33;;
7375;SDS011;3728;42.266;24.944;2023-06-26T15:54:22;4.93;;;3.78;;
7375;SDS011;3728;42.266;24.944;2023-06-26T15:56:54;7.43;;;3.80;;
7375;SDS011;3728;42.266;24.944;2023-06-26T15:59:24;5.65;;;3.67;;
7375;SDS011;3728;42.266;24.944;2023-06-26T16:01:52;6.85;;;4.10;;
7375;SDS011;3728;42.266;24.944;2023-06-26T16:04:22;6.30;;;4.13;;
7375;SDS011;3728;42.266;24.944;2023-06-26T16:06:51;7.55;;;4.28;;
7375;SDS011;3728;42.266;24.944;2023-06-26T16:09:19;6.45;;;4.82;;
7375;SDS011;3728;42.266;24.944;2023-06-26T16:11:47;4.28;;;3.88;;
7375;SDS011;3728;42.266;24.944;2023-06-26T16:14:16;5.80;;;3.35;;
7375;SDS011;3728;42.266;24.944;2023-06-26T16:16:49;4.85;;;3.38;;
7375;SDS011;3728;42.266;24.944;2023-06-26T16:19:24;3.30;;;2.92;;
7375;SDS011;3728;42.266;24.944;2023-06-26T16:21:53;3.63;;;3.00;;
7375;SDS011;3728;42.266;24.944;2023-06-26T16:24:22;4.95;;;3.10;;
7375;SDS011;3728;42.266;24.944;2023-06-26T16:26:50;3.80;;;3.10;;
7375;SDS011;3728;42.266;24.944;2023-06-26T16:29:19;6.22;;;3.13;;
7375;SDS011;3728;42.266;24.944;2023-06-26T16:31:47;5.38;;;2.90;;
7375;SDS011;3728;42.266;24.944;2023-06-26T16:34:15;4.38;;;2.80;;
7375;SDS011;3728;42.266;24.944;2023-06-26T16:36:45;4.97;;;3.08;;
7375;SDS011;3728;42.266;24.944;2023-06-26T16:39:19;4.55;;;3.30;;
7375;SDS011;3728;42.266;24.944;2023-06-26T16:41:48;3.45;;;2.97;;
7375;SDS011;3728;42.266;24.944;2023-06-26T16:44:20;4.35;;;2.85;;
7375;SDS011;3728;42.266;24.944;2023-06-26T16:46:53;5.57;;;3.30;;
7375;SDS011;3728;42.266;24.944;2023-06-26T16:49:29;3.78;;;2.75;;
7375;SDS011;3728;42.266;24.944;2023-06-26T16:51:56;3.80;;;3.40;;